Alum Bridge, West Virginia
Current Conditions -  °F | °C
As of 4:15 PM on Tuesday 21 Oct 2014 (Local Time) from KW22 Reporting Station
Light Rain Light Rain  
Wind Chill:   Ceiling: NA
Heat Index:   Visibility: 3mi
Dew Point:   Wind: 6mph
Humidity: 100%   Direction: 340°NNW
Pressure: 29.91"   Gusts: 13mph
Location:  39.04°N, 80.66°W
Report Text: KW22 212015Z AUTO 34005G11KT 3SM -RA 09/09 A2991 RMK AO2
Loading
Personal Weather Stations






























Interactive Weather Map New forecast layout! Learn more

10-Day Weather Forecast

Advertisements
Track Severe Weather on mobile